| time (UTC) | temp F | wind direction | speed knots | gust knots | rain 1hr in | rain 24hr in | rain mn in | humidity % | barometer mb |
| 20260504150525 | 69 | 192 | 1.7 | 4.3 | 0.00 | 0.00 | 0.00 | 55 | 1004.2 |
| 20260504140528 | 75 | 169 | 4.3 | 5.2 | 0.00 | 0.00 | 0.00 | 46 | 1004.1 |
| 20260504130527 | 67 | 174 | 2.6 | 5.2 | 0.00 | 0.00 | 0.00 | 61 | 1004.6 |
| 20260504110524 | 57 | 135 | 0.0 | 0.9 | 0.00 | 0.00 | 0.00 | 79 | 1004.9 |
| 20260504100522 | 59 | 0.0 | 0.0 | 0.00 | 0.00 | 0.00 | 76 | 1005.2 | |
| 20260504081536 | 61 | 0.0 | 0.0 | 0.00 | 0.00 | 0.00 | 71 | 1005.0 | |
| 20260504080520 | 61 | 0.0 | 0.0 | 0.00 | 0.00 | 0.00 | 70 | 1005.0 | |
| 20260504050555 | 67 | 107 | 2.6 | 3.5 | 0.00 | 0.00 | 0.00 | 52 | 1004.5 |
| 20260504045517 | 68 | 184 | 3.5 | 5.2 | 0.00 | 0.00 | 0.00 | 51 | 1004.5 |
| 20260504044520 | 68 | 170 | 2.6 | 4.3 | 0.00 | 0.00 | 0.00 | 51 | 1004.6 |
| 20260504043523 | 68 | 188 | 2.6 | 4.3 | 0.00 | 0.00 | 0.00 | 50 | 1005.2 |
| 20260504042525 | 68 | 210 | 1.7 | 3.5 | 0.00 | 0.00 | 0.00 | 50 | 1005.3 |
| 20260504041530 | 68 | 190 | 2.6 | 4.3 | 0.00 | 0.00 | 0.00 | 50 | 1005.4 |
| 20260504040531 | 68 | 161 | 1.7 | 3.5 | 0.00 | 0.00 | 0.00 | 50 | 1004.8 |
| 20260504035516 | 68 | 87 | 1.7 | 2.6 | 0.00 | 0.00 | 0.00 | 51 | 1005.9 |
| 20260504034519 | 68 | 156 | 1.7 | 4.3 | 0.00 | 0.00 | 0.00 | 51 | 1006.1 |
| 20260504033521 | 66 | 154 | 1.7 | 3.5 | 0.00 | 0.00 | 0.00 | 53 | 1006.2 |
| 20260504032524 | 66 | 135 | 0.0 | 0.9 | 0.00 | 0.00 | 0.00 | 55 | 1006.3 |
| 20260504031528 | 66 | 0.0 | 0.0 | 0.00 | 0.00 | 0.00 | 54 | 1006.3 | |
| 20260504030530 | 67 | 0.0 | 0.0 | 0.00 | 0.00 | 0.00 | 52 | 1006.1 | |
| 20260504025526 | 68 | 0.0 | 0.0 | 0.00 | 0.00 | 0.00 | 51 | 1006.1 | |
| 20260504024517 | 69 | 0.0 | 0.0 | 0.00 | 0.00 | 0.00 | 49 | 1006.2 | |
| 20260504023520 | 69 | 0.0 | 0.0 | 0.00 | 0.00 | 0.00 | 47 | 1006.0 | |
| 20260504022516 | 70 | 296 | 0.9 | 1.7 | 0.00 | 0.00 | 0.00 | 46 | 1005.9 |
| 20260504021525 | 71 | 210 | 0.9 | 1.7 | 0.00 | 0.00 | 0.00 | 44 | 1005.7 |
| 20260504020528 | 71 | 186 | 1.7 | 3.5 | 0.00 | 0.00 | 0.00 | 44 | 1005.6 |
| 20260504015531 | 71 | 163 | 2.6 | 4.3 | 0.00 | 0.00 | 0.00 | 44 | 1005.6 |
| 20260504014516 | 71 | 101 | 0.0 | 1.7 | 0.00 | 0.00 | 0.00 | 43 | 1005.5 |
| 20260504013518 | 71 | 174 | 1.7 | 2.6 | 0.00 | 0.00 | 0.00 | 43 | 1005.3 |
| 20260504012521 | 71 | 175 | 2.6 | 4.3 | 0.00 | 0.00 | 0.00 | 42 | 1005.3 |
| 20260504011524 | 72 | 175 | 1.7 | 2.6 | 0.00 | 0.00 | 0.00 | 42 | 1005.2 |
| 20260504010526 | 72 | 203 | 1.7 | 3.5 | 0.00 | 0.00 | 0.00 | 41 | 1005.3 |
| 20260504005529 | 73 | 144 | 0.9 | 1.7 | 0.00 | 0.00 | 0.00 | 41 | 1005.2 |
| 20260504004532 | 73 | 177 | 0.9 | 1.7 | 0.00 | 0.00 | 0.00 | 40 | 1005.2 |
| 20260504003516 | 73 | 135 | 0.9 | 2.6 | 0.00 | 0.00 | 0.00 | 39 | 1005.3 |
| 20260504002519 | 74 | 82 | 1.7 | 3.5 | 0.00 | 0.00 | 0.00 | 38 | 1005.4 |
| 20260504001522 | 74 | 187 | 0.9 | 1.7 | 0.00 | 0.00 | 0.00 | 37 | 1005.4 |
| 20260504000525 | 75 | 247 | 0.9 | 2.6 | 0.00 | 0.00 | 0.00 | 37 | 1005.4 |
| 20260503235528 | 75 | 183 | 2.6 | 2.6 | 0.00 | 0.00 | 0.00 | 36 | 1005.4 |
| 20260503234526 | 75 | 182 | 1.7 | 3.5 | 0.00 | 0.00 | 0.00 | 35 | 1005.6 |
| 20260503233535 | 76 | 185 | 1.7 | 3.5 | 0.00 | 0.00 | 0.00 | 35 | 1005.7 |
| 20260503232518 | 76 | 126 | 1.7 | 4.3 | 0.00 | 0.00 | 0.00 | 34 | 1005.8 |
| 20260503231540 | 77 | 290 | 2.6 | 4.3 | 0.00 | 0.00 | 0.00 | 33 | 1005.8 |
| 20260503230543 | 77 | 181 | 2.6 | 4.3 | 0.00 | 0.00 | 0.00 | 34 | 1005.7 |
| 20260503225525 | 77 | 142 | 3.5 | 4.3 | 0.00 | 0.00 | 0.00 | 33 | 1006.0 |
| 20260503224528 | 77 | 185 | 1.7 | 3.5 | 0.00 | 0.00 | 0.00 | 33 | 1006.1 |
| 20260503223531 | 77 | 177 | 4.3 | 6.1 | 0.00 | 0.00 | 0.00 | 32 | 1006.0 |
| 20260503222516 | 77 | 225 | 3.5 | 6.1 | 0.00 | 0.00 | 0.00 | 32 | 1006.0 |
| 20260503221519 | 77 | 125 | 2.6 | 6.1 | 0.00 | 0.00 | 0.00 | 32 | 1006.0 |
| 20260503220523 | 77 | 278 | 4.3 | 7.0 | 0.00 | 0.00 | 0.00 | 30 | 1006.2 |
| 20260503215604 | 77 | 245 | 3.5 | 5.2 | 0.00 | 0.00 | 0.00 | 32 | 1006.3 |
| 20260503214548 | 77 | 129 | 3.5 | 4.3 | 0.00 | 0.00 | 0.00 | 31 | 1006.2 |
| 20260503213529 | 77 | 244 | 4.3 | 7.0 | 0.00 | 0.00 | 0.00 | 31 | 1006.4 |
| 20260503212532 | 77 | 155 | 2.6 | 5.2 | 0.00 | 0.00 | 0.00 | 31 | 1006.5 |
| 20260503211517 | 77 | 113 | 1.7 | 2.6 | 0.00 | 0.00 | 0.00 | 31 | 1006.5 |
| 20260503210520 | 77 | 200 | 4.3 | 6.1 | 0.00 | 0.00 | 0.00 | 31 | 1006.6 |
| 20260503205543 | 76 | 231 | 5.2 | 7.8 | 0.00 | 0.00 | 0.00 | 31 | 1006.9 |
| 20260503204526 | 76 | 213 | 3.5 | 4.3 | 0.00 | 0.00 | 0.00 | 32 | 1007.0 |
| 20260503203522 | 76 | 115 | 4.3 | 7.8 | 0.00 | 0.00 | 0.00 | 32 | 1007.6 |
| 20260503202518 | 76 | 164 | 3.5 | 5.2 | 0.00 | 0.00 | 0.00 | 33 | 1007.6 |
| 20260503201515 | 75 | 196 | 5.2 | 6.1 | 0.00 | 0.00 | 0.00 | 33 | 1007.7 |
| 20260503200519 | 76 | 123 | 5.2 | 7.0 | 0.00 | 0.00 | 0.00 | 31 | 1008.1 |
| 20260503195541 | 75 | 207 | 3.5 | 6.1 | 0.00 | 0.00 | 0.00 | 32 | 1008.6 |
| 20260503194523 | 76 | 184 | 5.2 | 7.8 | 0.00 | 0.00 | 0.00 | 32 | 1008.8 |
| 20260503193546 | 75 | 95 | 3.5 | 5.2 | 0.00 | 0.00 | 0.00 | 33 | 1008.9 |
| 20260503192531 | 75 | 134 | 3.5 | 6.1 | 0.00 | 0.00 | 0.00 | 32 | 1009.1 |
| 20260503191532 | 75 | 150 | 5.2 | 9.6 | 0.00 | 0.00 | 0.00 | 32 | 1009.4 |
| 20260503190537 | 74 | 188 | 2.6 | 4.3 | 0.00 | 0.00 | 0.00 | 33 | 1009.5 |
| 20260503185519 | 74 | 165 | 3.5 | 5.2 | 0.00 | 0.00 | 0.00 | 34 | 1009.9 |
| 20260503184542 | 73 | 211 | 6.1 | 8.7 | 0.00 | 0.00 | 0.00 | 32 | 1010.1 |
| 20260503183547 | 73 | 152 | 4.3 | 7.0 | 0.00 | 0.00 | 0.00 | 32 | 1010.5 |
| 20260503182527 | 72 | 158 | 4.3 | 7.0 | 0.00 | 0.00 | 0.00 | 33 | 1010.8 |
| 20260503181530 | 73 | 167 | 3.5 | 5.2 | 0.00 | 0.00 | 0.00 | 34 | 1010.9 |
| 20260503180515 | 72 | 185 | 4.3 | 7.0 | 0.00 | 0.00 | 0.00 | 32 | 1011.4 |
| 20260503175518 | 73 | 127 | 2.6 | 5.2 | 0.00 | 0.00 | 0.00 | 35 | 1011.7 |
| 20260503174520 | 71 | 192 | 3.5 | 6.1 | 0.00 | 0.00 | 0.00 | 34 | 1012.4 |
| 20260503173523 | 70 | 212 | 5.2 | 7.0 | 0.00 | 0.00 | 0.00 | 35 | 1012.7 |
| 20260503172540 | 70 | 198 | 3.5 | 5.2 | 0.00 | 0.00 | 0.00 | 36 | 1012.8 |
| 20260503171516 | 70 | 236 | 3.5 | 4.3 | 0.00 | 0.00 | 0.00 | 36 | 1013.0 |
| 20260503170531 | 70 | 129 | 5.2 | 9.6 | 0.00 | 0.00 | 0.00 | 36 | 1013.2 |